createdAt,value
2022-07-30T00:08:26.416Z,53.11
2022-07-30T00:18:28.280Z,53.73
2022-07-30T00:28:30.202Z,54.51
2022-07-30T00:38:32.386Z,54.82
2022-07-30T00:48:34.305Z,55.03
2022-07-30T00:58:36.221Z,54.73
2022-07-30T01:08:38.273Z,55.35
2022-07-30T01:19:01.111Z,55.03
2022-07-30T01:29:03.365Z,56.75
2022-07-30T01:39:05.842Z,57.49
2022-07-30T01:49:10.664Z,57.62
2022-07-30T01:59:16.596Z,58.78
2022-07-30T02:09:27.032Z,59.04
2022-07-30T02:19:36.992Z,58.46
2022-07-30T02:29:46.333Z,61.01
2022-07-30T02:39:51.836Z,63.93
2022-07-30T02:49:55.419Z,66.96
2022-07-30T02:59:59.370Z,73.53
2022-07-30T03:10:03.025Z,77.35
2022-07-30T03:20:09.997Z,77.46
2022-07-30T03:30:12.785Z,77.03
2022-07-30T03:40:16.058Z,85.92
2022-07-30T03:50:17.998Z,85.72
2022-07-30T04:00:21.356Z,85.90
2022-07-30T04:10:25.332Z,84.77
2022-07-30T04:20:41.274Z,86.28
2022-07-30T04:30:43.437Z,84.29
2022-07-30T04:40:46.038Z,84.01
2022-07-30T04:50:50.257Z,84.51
2022-07-30T05:00:55.508Z,80.68
2022-07-30T05:11:01.734Z,79.74
2022-07-30T05:21:04.504Z,78.65
2022-07-30T05:31:12.478Z,77.26
2022-07-30T05:41:19.055Z,77.21
2022-07-30T05:51:47.605Z,77.54
2022-07-30T06:01:53.178Z,77.67
2022-07-30T06:12:00.156Z,79.21
2022-07-30T06:22:06.698Z,79.43
2022-07-30T06:32:14.006Z,82.75
2022-07-30T06:42:16.265Z,87.17
2022-07-30T06:52:38.044Z,86.25
2022-07-30T07:02:42.727Z,83.38
2022-07-30T07:12:47.570Z,83.55
2022-07-30T07:22:52.057Z,83.20
2022-07-30T07:32:55.395Z,81.63
2022-07-30T07:42:58.795Z,80.91
2022-07-30T07:53:01.304Z,77.34
2022-07-30T08:03:03.719Z,74.44
2022-07-30T08:13:06.322Z,73.76
2022-07-30T08:23:28.265Z,72.52
2022-07-30T08:33:30.303Z,70.54
2022-07-30T08:43:35.945Z,70.00
2022-07-30T08:53:39.194Z,72.39
2022-07-30T09:03:44.168Z,73.17
2022-07-30T09:13:47.205Z,73.29
2022-07-30T09:24:03.773Z,72.15
2022-07-30T09:34:40.157Z,70.51
2022-07-30T09:44:42.342Z,69.04
2022-07-30T09:54:52.896Z,68.70
2022-07-30T10:05:14.403Z,67.99
2022-07-30T10:15:20.768Z,67.78
2022-07-30T10:25:28.107Z,68.12
2022-07-30T10:35:49.616Z,70.81
2022-07-30T10:46:36.634Z,73.42
2022-07-30T10:56:38.839Z,77.08
2022-07-30T11:06:40.913Z,78.52
2022-07-30T11:16:58.639Z,77.43
2022-07-30T11:27:01.875Z,76.88
2022-07-30T11:37:18.336Z,75.28
2022-07-30T11:47:28.296Z,73.27
2022-07-30T11:57:43.858Z,73.12
2022-07-30T12:07:46.030Z,71.77
2022-07-30T12:17:51.370Z,71.91
2022-07-30T12:27:59.505Z,72.93
2022-07-30T12:38:07.148Z,74.04
2022-07-30T12:48:12.859Z,74.85
2022-07-30T12:58:17.676Z,75.04
2022-07-30T13:08:20.014Z,80.16
2022-07-30T13:18:24.279Z,82.92
2022-07-30T13:28:26.555Z,80.82
2022-07-30T13:38:28.993Z,77.99
2022-07-30T13:48:32.632Z,75.61
2022-07-30T13:58:36.217Z,72.44
2022-07-30T14:08:39.182Z,69.83
2022-07-30T14:18:42.829Z,68.03
2022-07-30T14:28:44.861Z,67.87
2022-07-30T14:38:46.817Z,66.65
2022-07-30T14:48:50.141Z,66.03
2022-07-30T14:58:53.441Z,67.76
2022-07-30T15:08:55.630Z,69.31
2022-07-30T15:18:59.010Z,70.02
2022-07-30T15:29:01.042Z,72.65
2022-07-30T15:39:02.867Z,74.78
2022-07-30T15:49:05.111Z,74.37
2022-07-30T15:59:07.409Z,75.11
2022-07-30T16:09:09.497Z,77.05
2022-07-30T16:19:12.274Z,77.23
2022-07-30T16:29:14.409Z,77.86
2022-07-30T16:39:16.754Z,77.31
2022-07-30T16:49:19.689Z,77.91
2022-07-30T16:59:22.657Z,77.79
2022-07-30T17:09:24.873Z,77.65
2022-07-30T17:19:27.295Z,78.23
2022-07-30T17:29:29.876Z,76.78
2022-07-30T17:40:26.335Z,77.08
2022-07-30T17:49:55.136Z,76.72
2022-07-30T17:59:57.111Z,75.92
2022-07-30T18:09:59.439Z,76.47
2022-07-30T18:20:01.542Z,76.44
2022-07-30T18:30:04.341Z,77.00
2022-07-30T18:40:07.668Z,77.57
2022-07-30T18:50:11.726Z,77.91
2022-07-30T19:00:34.342Z,78.31
2022-07-30T19:10:37.588Z,78.27
2022-07-30T19:20:39.750Z,78.20
2022-07-30T19:30:41.856Z,78.01
2022-07-30T19:40:43.962Z,78.54
2022-07-30T19:50:46.060Z,78.98
2022-07-30T20:00:49.772Z,79.56
2022-07-30T20:10:52.155Z,80.19
2022-07-30T20:20:55.120Z,82.05
2022-07-30T20:31:00.629Z,83.82
2022-07-30T20:41:03.687Z,82.74
2022-07-30T20:51:13.259Z,83.58
2022-07-30T21:01:17.521Z,83.57
2022-07-30T21:11:20.217Z,83.56
2022-07-30T21:21:28.688Z,84.21
2022-07-30T21:32:01.963Z,84.34
2022-07-30T21:42:03.812Z,84.47
2022-07-30T21:52:08.671Z,84.71
2022-07-30T22:02:15.886Z,84.57
2022-07-30T22:12:33.077Z,84.92
2022-07-30T22:22:37.732Z,84.28
2022-07-30T22:32:40.263Z,85.68
2022-07-30T22:42:49.525Z,84.72
2022-07-30T22:53:01.320Z,83.88
2022-07-30T23:03:14.816Z,84.24
2022-07-30T23:13:18.931Z,84.03
2022-07-30T23:23:20.864Z,84.19
2022-07-30T23:33:22.768Z,84.18
2022-07-30T23:43:24.643Z,83.91
2022-07-30T23:53:26.785Z,83.66
